Terminal Aerodrome Forecast
Issued by NWS Cleveland, OH

Home | Current Version | Previous Version | Text Only | Print | Product List | Glossary Off
Versions: 1 2 3 4 5 6 7 8 9 10 11 12 13 14 15 16 17 18 19 20 21 22 23 24 25 26 27 28 29 30 31 32

000
FTUS41 KCLE 281736
TAFCLE
TAF
KCLE 281736Z 2818/2924 14005KT P6SM OVC140
     FM282000 12009KT P6SM -RA OVC050
     FM282200 12009KT P6SM OVC120
     FM290000 12007KT 5SM -RA OVC025
     FM290400 10007KT P6SM OVC080
     FM291400 09009KT 5SM -RA BR OVC025
     FM291800 05012KT P6SM OVC140=

USA.gov is the U.S. government's official web portal to all federal, state and local government web resources and services.